sensor_id;sensor_type;location;lat;lon;timestamp;pressure;altitude;pressure_sealevel;temperature;humidity
52745;BME280;38637;49.984;20.426;2022-11-10T00:00:14;99515.78;;;5.76;79.17
52745;BME280;38637;49.984;20.426;2022-11-10T00:02:39;99528.50;;;5.75;78.39
52745;BME280;38637;49.984;20.426;2022-11-10T00:05:08;99522.47;;;5.73;77.46
52745;BME280;38637;49.984;20.426;2022-11-10T00:07:34;99540.06;;;5.64;77.41
52745;BME280;38637;49.984;20.426;2022-11-10T00:09:59;99532.41;;;5.61;77.94
52745;BME280;38637;49.984;20.426;2022-11-10T00:12:24;99534.28;;;5.61;78.39
52745;BME280;38637;49.984;20.426;2022-11-10T00:14:50;99531.41;;;5.56;78.44
52745;BME280;38637;49.984;20.426;2022-11-10T00:17:36;99534.94;;;5.56;78.06
52745;BME280;38637;49.984;20.426;2022-11-10T00:20:02;99535.63;;;5.51;77.70
52745;BME280;38637;49.984;20.426;2022-11-10T00:22:28;99545.25;;;5.47;77.82
52745;BME280;38637;49.984;20.426;2022-11-10T00:24:54;99542.16;;;5.44;79.08
52745;BME280;38637;49.984;20.426;2022-11-10T00:27:19;99551.50;;;5.48;78.50
52745;BME280;38637;49.984;20.426;2022-11-10T00:29:45;99547.81;;;5.42;78.81
52745;BME280;38637;49.984;20.426;2022-11-10T00:32:10;99548.84;;;5.41;78.56
52745;BME280;38637;49.984;20.426;2022-11-10T00:34:35;99547.81;;;5.42;78.51
52745;BME280;38637;49.984;20.426;2022-11-10T00:37:01;99532.22;;;5.38;78.53
52745;BME280;38637;49.984;20.426;2022-11-10T00:39:27;99546.03;;;5.55;79.04
52745;BME280;38637;49.984;20.426;2022-11-10T00:41:53;99545.56;;;5.58;78.74
52745;BME280;38637;49.984;20.426;2022-11-10T00:44:18;99545.78;;;5.56;78.55
52745;BME280;38637;49.984;20.426;2022-11-10T00:46:43;99538.56;;;5.50;79.08
52745;BME280;38637;49.984;20.426;2022-11-10T00:49:09;99549.09;;;5.58;79.20
52745;BME280;38637;49.984;20.426;2022-11-10T00:51:35;99554.06;;;5.61;79.19
52745;BME280;38637;49.984;20.426;2022-11-10T00:54:00;99553.25;;;5.61;78.92
52745;BME280;38637;49.984;20.426;2022-11-10T00:56:25;99544.97;;;5.56;78.07
52745;BME280;38637;49.984;20.426;2022-11-10T00:58:51;99538.94;;;5.53;78.00
52745;BME280;38637;49.984;20.426;2022-11-10T01:01:18;99551.44;;;5.55;78.11
52745;BME280;38637;49.984;20.426;2022-11-10T01:03:44;99557.50;;;5.50;76.95
52745;BME280;38637;49.984;20.426;2022-11-10T01:06:14;99550.06;;;5.45;77.49
52745;BME280;38637;49.984;20.426;2022-11-10T01:08:41;99557.38;;;5.45;77.68
52745;BME280;38637;49.984;20.426;2022-11-10T01:11:11;99555.31;;;5.40;77.35
52745;BME280;38637;49.984;20.426;2022-11-10T01:13:37;99556.38;;;5.39;77.87
52745;BME280;38637;49.984;20.426;2022-11-10T01:16:10;99542.84;;;5.39;78.06
52745;BME280;38637;49.984;20.426;2022-11-10T01:18:36;99550.97;;;5.39;77.84
52745;BME280;38637;49.984;20.426;2022-11-10T01:21:03;99539.06;;;5.40;77.93
52745;BME280;38637;49.984;20.426;2022-11-10T01:23:28;99555.03;;;5.48;78.67
52745;BME280;38637;49.984;20.426;2022-11-10T01:26:02;99558.34;;;5.50;77.92
52745;BME280;38637;49.984;20.426;2022-11-10T01:28:28;99561.91;;;5.51;78.54
52745;BME280;38637;49.984;20.426;2022-11-10T01:31:03;99558.94;;;5.52;77.80
52745;BME280;38637;49.984;20.426;2022-11-10T01:33:29;99540.97;;;5.40;77.73
52745;BME280;38637;49.984;20.426;2022-11-10T01:35:54;99562.94;;;5.50;78.29
52745;BME280;38637;49.984;20.426;2022-11-10T01:38:20;99565.72;;;5.43;77.73
52745;BME280;38637;49.984;20.426;2022-11-10T01:40:46;99557.66;;;5.37;77.50
52745;BME280;38637;49.984;20.426;2022-11-10T01:43:11;99559.09;;;5.39;77.22
52745;BME280;38637;49.984;20.426;2022-11-10T01:45:51;99568.03;;;5.40;77.30
52745;BME280;38637;49.984;20.426;2022-11-10T01:48:32;99564.72;;;5.38;77.60
52745;BME280;38637;49.984;20.426;2022-11-10T01:51:03;99563.88;;;5.37;77.67
52745;BME280;38637;49.984;20.426;2022-11-10T01:53:31;99552.88;;;5.32;77.59
52745;BME280;38637;49.984;20.426;2022-11-10T01:55:58;99554.78;;;5.32;77.81
52745;BME280;38637;49.984;20.426;2022-11-10T01:58:28;99556.81;;;5.36;78.11
52745;BME280;38637;49.984;20.426;2022-11-10T02:00:54;99548.91;;;5.35;78.88
52745;BME280;38637;49.984;20.426;2022-11-10T02:03:29;99561.63;;;5.34;78.20
52745;BME280;38637;49.984;20.426;2022-11-10T02:05:57;99559.59;;;5.29;77.84
52745;BME280;38637;49.984;20.426;2022-11-10T02:08:22;99540.03;;;5.27;78.89
52745;BME280;38637;49.984;20.426;2022-11-10T02:10:49;99552.00;;;5.38;78.60
52745;BME280;38637;49.984;20.426;2022-11-10T02:13:14;99559.59;;;5.29;78.06
52745;BME280;38637;49.984;20.426;2022-11-10T02:15:39;99561.47;;;5.29;78.00
52745;BME280;38637;49.984;20.426;2022-11-10T02:18:05;99570.88;;;5.26;78.66
52745;BME280;38637;49.984;20.426;2022-11-10T02:20:31;99579.47;;;5.17;78.50
52745;BME280;38637;49.984;20.426;2022-11-10T02:22:56;99579.66;;;5.22;78.92
52745;BME280;38637;49.984;20.426;2022-11-10T02:25:22;99560.16;;;5.13;79.41
52745;BME280;38637;49.984;20.426;2022-11-10T02:27:49;99583.13;;;5.29;79.68
52745;BME280;38637;49.984;20.426;2022-11-10T02:30:15;99577.50;;;5.30;79.56
52745;BME280;38637;49.984;20.426;2022-11-10T02:32:41;99557.53;;;5.25;79.47
52745;BME280;38637;49.984;20.426;2022-11-10T02:35:07;99583.22;;;5.41;79.64
52745;BME280;38637;49.984;20.426;2022-11-10T02:37:32;99581.94;;;5.43;79.68
52745;BME280;38637;49.984;20.426;2022-11-10T02:39:57;99580.06;;;5.44;79.58
52745;BME280;38637;49.984;20.426;2022-11-10T02:42:23;99581.88;;;5.50;79.55
52745;BME280;38637;49.984;20.426;2022-11-10T02:44:48;99571.56;;;5.40;78.84
52745;BME280;38637;49.984;20.426;2022-11-10T02:47:13;99585.09;;;5.40;78.54
52745;BME280;38637;49.984;20.426;2022-11-10T02:49:39;99581.13;;;5.43;79.63
52745;BME280;38637;49.984;20.426;2022-11-10T02:52:04;99592.13;;;5.48;79.67
52745;BME280;38637;49.984;20.426;2022-11-10T02:54:29;99598.38;;;5.48;80.05
52745;BME280;38637;49.984;20.426;2022-11-10T02:56:55;99601.22;;;5.53;80.38
52745;BME280;38637;49.984;20.426;2022-11-10T02:59:20;99609.97;;;5.56;80.83
52745;BME280;38637;49.984;20.426;2022-11-10T03:01:45;99601.47;;;5.52;80.34
52745;BME280;38637;49.984;20.426;2022-11-10T03:04:11;99601.34;;;5.40;79.57
52745;BME280;38637;49.984;20.426;2022-11-10T03:06:36;99621.31;;;5.46;78.93
52745;BME280;38637;49.984;20.426;2022-11-10T03:09:02;99613.91;;;5.35;80.58
52745;BME280;38637;49.984;20.426;2022-11-10T03:11:27;99605.06;;;5.21;81.42
52745;BME280;38637;49.984;20.426;2022-11-10T03:13:52;99614.03;;;5.21;81.74
52745;BME280;38637;49.984;20.426;2022-11-10T03:16:18;99607.34;;;5.24;82.27
52745;BME280;38637;49.984;20.426;2022-11-10T03:18:44;99599.66;;;5.21;81.38
52745;BME280;38637;49.984;20.426;2022-11-10T03:21:09;99603.13;;;5.28;80.74
52745;BME280;38637;49.984;20.426;2022-11-10T03:23:35;99602.25;;;5.34;80.26
52745;BME280;38637;49.984;20.426;2022-11-10T03:26:04;99600.03;;;5.24;80.72
52745;BME280;38637;49.984;20.426;2022-11-10T03:28:29;99614.13;;;5.33;80.47
52745;BME280;38637;49.984;20.426;2022-11-10T03:30:55;99621.25;;;5.27;79.29
52745;BME280;38637;49.984;20.426;2022-11-10T03:33:20;99614.41;;;5.25;80.19
52745;BME280;38637;49.984;20.426;2022-11-10T03:35:45;99607.34;;;5.24;80.86
52745;BME280;38637;49.984;20.426;2022-11-10T03:38:11;99610.81;;;5.31;82.36
52745;BME280;38637;49.984;20.426;2022-11-10T03:40:36;99623.72;;;5.29;83.40
52745;BME280;38637;49.984;20.426;2022-11-10T03:43:01;99611.13;;;5.16;83.51
52745;BME280;38637;49.984;20.426;2022-11-10T03:45:27;99615.16;;;5.32;83.60
52745;BME280;38637;49.984;20.426;2022-11-10T03:47:52;99612.63;;;5.37;83.21
52745;BME280;38637;49.984;20.426;2022-11-10T03:50:17;99619.03;;;5.43;82.93
52745;BME280;38637;49.984;20.426;2022-11-10T03:52:44;99619.44;;;5.46;83.10
52745;BME280;38637;49.984;20.426;2022-11-10T03:55:10;99617.09;;;5.50;82.88
52745;BME280;38637;49.984;20.426;2022-11-10T03:57:36;99621.94;;;5.48;82.89
52745;BME280;38637;49.984;20.426;2022-11-10T04:00:02;99624.72;;;5.35;83.91
52745;BME280;38637;49.984;20.426;2022-11-10T04:02:27;99629.31;;;5.34;84.10
52745;BME280;38637;49.984;20.426;2022-11-10T04:04:53;99628.44;;;5.40;84.09
52745;BME280;38637;49.984;20.426;2022-11-10T04:07:37;99629.25;;;5.41;84.05
52745;BME280;38637;49.984;20.426;2022-11-10T04:10:21;99642.41;;;5.37;83.94
52745;BME280;38637;49.984;20.426;2022-11-10T04:12:47;99633.91;;;5.34;84.17
52745;BME280;38637;49.984;20.426;2022-11-10T04:15:31;99618.31;;;5.29;84.08
52745;BME280;38637;49.984;20.426;2022-11-10T04:18:12;99644.25;;;5.43;83.35
52745;BME280;38637;49.984;20.426;2022-11-10T04:20:55;99639.28;;;5.40;82.54
52745;BME280;38637;49.984;20.426;2022-11-10T04:23:22;99625.41;;;5.30;82.31
52745;BME280;38637;49.984;20.426;2022-11-10T04:25:51;99639.06;;;5.42;82.61
52745;BME280;38637;49.984;20.426;2022-11-10T04:28:35;99649.66;;;5.43;82.71
52745;BME280;38637;49.984;20.426;2022-11-10T04:31:01;99647.88;;;5.56;82.57
52745;BME280;38637;49.984;20.426;2022-11-10T04:33:26;99643.09;;;5.58;82.07
52745;BME280;38637;49.984;20.426;2022-11-10T04:35:51;99651.16;;;5.64;82.03
52745;BME280;38637;49.984;20.426;2022-11-10T04:38:17;99655.66;;;5.70;82.20
52745;BME280;38637;49.984;20.426;2022-11-10T04:40:42;99652.91;;;5.77;81.92
52745;BME280;38637;49.984;20.426;2022-11-10T04:43:07;99667.44;;;5.83;81.91
52745;BME280;38637;49.984;20.426;2022-11-10T04:45:33;99666.63;;;5.82;82.49
52745;BME280;38637;49.984;20.426;2022-11-10T04:47:58;99662.34;;;5.93;82.43
52745;BME280;38637;49.984;20.426;2022-11-10T04:50:24;99666.06;;;5.98;82.81
52745;BME280;38637;49.984;20.426;2022-11-10T04:52:49;99669.38;;;6.01;83.43
52745;BME280;38637;49.984;20.426;2022-11-10T04:55:14;99664.63;;;5.96;84.13
52745;BME280;38637;49.984;20.426;2022-11-10T04:57:41;99659.34;;;6.01;84.45
52745;BME280;38637;49.984;20.426;2022-11-10T05:00:07;99660.34;;;6.07;84.11
52745;BME280;38637;49.984;20.426;2022-11-10T05:02:33;99655.47;;;6.15;84.19
52745;BME280;38637;49.984;20.426;2022-11-10T05:04:59;99663.66;;;6.27;83.57
52745;BME280;38637;49.984;20.426;2022-11-10T05:07:24;99666.06;;;6.35;83.76
52745;BME280;38637;49.984;20.426;2022-11-10T05:09:49;99662.06;;;6.38;83.78
52745;BME280;38637;49.984;20.426;2022-11-10T05:12:14;99654.91;;;6.43;84.07
52745;BME280;38637;49.984;20.426;2022-11-10T05:14:40;99663.34;;;6.54;83.76
52745;BME280;38637;49.984;20.426;2022-11-10T05:17:05;99662.88;;;6.57;83.75
52745;BME280;38637;49.984;20.426;2022-11-10T05:19:30;99662.66;;;6.58;83.86
52745;BME280;38637;49.984;20.426;2022-11-10T05:21:56;99669.19;;;6.69;83.42
52745;BME280;38637;49.984;20.426;2022-11-10T05:24:21;99669.34;;;6.74;83.55
52745;BME280;38637;49.984;20.426;2022-11-10T05:26:46;99675.97;;;6.78;83.71
52745;BME280;38637;49.984;20.426;2022-11-10T05:29:12;99681.19;;;6.80;83.52
52745;BME280;38637;49.984;20.426;2022-11-10T05:31:37;99692.59;;;6.82;83.87
52745;BME280;38637;49.984;20.426;2022-11-10T05:34:02;99681.38;;;6.78;83.76
52745;BME280;38637;49.984;20.426;2022-11-10T05:36:28;99690.66;;;6.89;84.02
52745;BME280;38637;49.984;20.426;2022-11-10T05:38:53;99684.53;;;6.94;84.10
52745;BME280;38637;49.984;20.426;2022-11-10T05:41:18;99689.50;;;6.97;84.19
52745;BME280;38637;49.984;20.426;2022-11-10T05:43:43;99692.00;;;6.98;84.24
52745;BME280;38637;49.984;20.426;2022-11-10T05:46:09;99687.75;;;7.02;84.46
52745;BME280;38637;49.984;20.426;2022-11-10T05:48:34;99704.31;;;7.12;84.42
52745;BME280;38637;49.984;20.426;2022-11-10T05:50:59;99702.41;;;7.13;84.65
52745;BME280;38637;49.984;20.426;2022-11-10T05:53:25;99716.13;;;7.18;84.64
52745;BME280;38637;49.984;20.426;2022-11-10T05:55:50;99718.25;;;7.16;84.77
52745;BME280;38637;49.984;20.426;2022-11-10T05:58:16;99705.97;;;7.13;85.09
52745;BME280;38637;49.984;20.426;2022-11-10T06:00:41;99730.06;;;7.22;84.80
52745;BME280;38637;49.984;20.426;2022-11-10T06:03:15;99733.53;;;7.29;84.66
52745;BME280;38637;49.984;20.426;2022-11-10T06:05:42;99738.72;;;7.30;85.10
52745;BME280;38637;49.984;20.426;2022-11-10T06:08:08;99739.03;;;7.22;85.86
52745;BME280;38637;49.984;20.426;2022-11-10T06:10:34;99737.41;;;7.21;85.93
52745;BME280;38637;49.984;20.426;2022-11-10T06:13:00;99753.59;;;7.28;86.62
52745;BME280;38637;49.984;20.426;2022-11-10T06:15:26;99762.09;;;7.31;87.33
52745;BME280;38637;49.984;20.426;2022-11-10T06:17:51;99755.06;;;7.42;86.98
52745;BME280;38637;49.984;20.426;2022-11-10T06:20:17;99759.13;;;7.51;87.02
52745;BME280;38637;49.984;20.426;2022-11-10T06:22:44;99752.97;;;7.56;86.93
52745;BME280;38637;49.984;20.426;2022-11-10T06:25:22;99763.03;;;7.67;86.87
52745;BME280;38637;49.984;20.426;2022-11-10T06:27:48;99749.00;;;7.70;86.71
52745;BME280;38637;49.984;20.426;2022-11-10T06:30:13;99769.94;;;7.81;86.86
52745;BME280;38637;49.984;20.426;2022-11-10T06:32:41;99782.72;;;7.81;86.91
52745;BME280;38637;49.984;20.426;2022-11-10T06:35:07;99768.97;;;7.76;86.97
52745;BME280;38637;49.984;20.426;2022-11-10T06:37:33;99788.19;;;7.93;86.75
52745;BME280;38637;49.984;20.426;2022-11-10T06:39:58;99789.50;;;8.02;86.56
52745;BME280;38637;49.984;20.426;2022-11-10T06:42:23;99796.09;;;8.06;87.33
52745;BME280;38637;49.984;20.426;2022-11-10T06:44:49;99788.09;;;8.11;86.78
52745;BME280;38637;49.984;20.426;2022-11-10T06:47:15;99809.94;;;8.16;87.38
52745;BME280;38637;49.984;20.426;2022-11-10T06:49:40;99808.44;;;8.20;87.29
52745;BME280;38637;49.984;20.426;2022-11-10T06:52:05;99806.41;;;8.27;87.12
52745;BME280;38637;49.984;20.426;2022-11-10T06:54:31;99816.59;;;8.20;88.09
52745;BME280;38637;49.984;20.426;2022-11-10T06:56:56;99814.69;;;8.09;88.92
52745;BME280;38637;49.984;20.426;2022-11-10T06:59:21;99816.44;;;8.03;89.10
52745;BME280;38637;49.984;20.426;2022-11-10T07:01:47;99822.34;;;8.00;89.77
52745;BME280;38637;49.984;20.426;2022-11-10T07:04:12;99825.41;;;8.04;90.00
52745;BME280;38637;49.984;20.426;2022-11-10T07:06:40;99835.38;;;8.10;89.65
52745;BME280;38637;49.984;20.426;2022-11-10T07:09:05;99814.78;;;8.02;89.85
52745;BME280;38637;49.984;20.426;2022-11-10T07:11:31;99842.22;;;8.13;89.92
52745;BME280;38637;49.984;20.426;2022-11-10T07:13:56;99849.72;;;8.17;89.86
52745;BME280;38637;49.984;20.426;2022-11-10T07:16:22;99850.38;;;8.13;89.99
52745;BME280;38637;49.984;20.426;2022-11-10T07:18:47;99832.63;;;7.98;90.47
52745;BME280;38637;49.984;20.426;2022-11-10T07:21:13;99840.78;;;7.98;90.66
52745;BME280;38637;49.984;20.426;2022-11-10T07:23:38;99822.63;;;7.80;90.94
52745;BME280;38637;49.984;20.426;2022-11-10T07:26:03;99831.28;;;7.89;91.10
52745;BME280;38637;49.984;20.426;2022-11-10T07:28:29;99850.72;;;8.04;90.81
52745;BME280;38637;49.984;20.426;2022-11-10T07:30:54;99838.81;;;8.05;90.57
52745;BME280;38637;49.984;20.426;2022-11-10T07:33:20;99844.94;;;8.13;90.29
52745;BME280;38637;49.984;20.426;2022-11-10T07:35:59;99863.91;;;8.31;90.10
52745;BME280;38637;49.984;20.426;2022-11-10T07:38:27;99861.31;;;8.36;89.97
52745;BME280;38637;49.984;20.426;2022-11-10T07:40:53;99870.94;;;8.39;89.72
52745;BME280;38637;49.984;20.426;2022-11-10T07:43:20;99874.13;;;8.47;89.54
52745;BME280;38637;49.984;20.426;2022-11-10T07:45:47;99870.94;;;8.50;89.55
52745;BME280;38637;49.984;20.426;2022-11-10T07:48:13;99871.19;;;8.49;90.44
52745;BME280;38637;49.984;20.426;2022-11-10T07:50:38;99879.09;;;8.50;91.43
52745;BME280;38637;49.984;20.426;2022-11-10T07:53:09;99879.09;;;8.62;92.17
52745;BME280;38637;49.984;20.426;2022-11-10T07:55:36;99881.00;;;8.73;91.65
52745;BME280;38637;49.984;20.426;2022-11-10T07:58:02;99878.97;;;8.81;91.01
52745;BME280;38637;49.984;20.426;2022-11-10T08:00:28;99885.38;;;8.86;90.10
52745;BME280;38637;49.984;20.426;2022-11-10T08:02:54;99885.50;;;8.91;89.64
52745;BME280;38637;49.984;20.426;2022-11-10T08:05:24;99889.41;;;8.95;89.15
52745;BME280;38637;49.984;20.426;2022-11-10T08:07:51;99892.00;;;9.02;88.96
52745;BME280;38637;49.984;20.426;2022-11-10T08:10:17;99879.94;;;8.98;88.79
52745;BME280;38637;49.984;20.426;2022-11-10T08:12:42;99899.69;;;9.05;88.24
52745;BME280;38637;49.984;20.426;2022-11-10T08:15:08;99902.88;;;9.02;88.30
52745;BME280;38637;49.984;20.426;2022-11-10T08:17:33;99909.88;;;9.10;88.42
52745;BME280;38637;49.984;20.426;2022-11-10T08:19:58;99919.47;;;9.12;88.22
52745;BME280;38637;49.984;20.426;2022-11-10T08:22:24;99907.97;;;9.10;87.98
52745;BME280;38637;49.984;20.426;2022-11-10T08:24:49;99923.13;;;9.18;88.08
52745;BME280;38637;49.984;20.426;2022-11-10T08:27:14;99916.63;;;9.19;88.15
52745;BME280;38637;49.984;20.426;2022-11-10T08:29:40;99912.63;;;9.10;88.00
52745;BME280;38637;49.984;20.426;2022-11-10T08:32:05;99944.44;;;9.21;88.12
52745;BME280;38637;49.984;20.426;2022-11-10T08:34:30;99941.50;;;9.23;88.58
52745;BME280;38637;49.984;20.426;2022-11-10T08:36:56;99934.03;;;9.18;88.64
52745;BME280;38637;49.984;20.426;2022-11-10T08:39:21;99939.59;;;9.23;89.51
52745;BME280;38637;49.984;20.426;2022-11-10T08:41:46;99934.63;;;9.20;89.45
52745;BME280;38637;49.984;20.426;2022-11-10T08:44:11;99947.88;;;9.28;89.29
52745;BME280;38637;49.984;20.426;2022-11-10T08:46:37;99953.09;;;9.30;89.56
52745;BME280;38637;49.984;20.426;2022-11-10T08:49:03;99947.97;;;9.33;90.19
52745;BME280;38637;49.984;20.426;2022-11-10T08:51:28;99950.22;;;9.36;89.91
52745;BME280;38637;49.984;20.426;2022-11-10T08:53:53;99961.03;;;9.43;90.32
52745;BME280;38637;49.984;20.426;2022-11-10T08:56:19;99964.66;;;9.49;89.97
52745;BME280;38637;49.984;20.426;2022-11-10T08:58:44;99963.97;;;9.53;90.10
52745;BME280;38637;49.984;20.426;2022-11-10T09:01:10;99962.53;;;9.51;90.79
52745;BME280;38637;49.984;20.426;2022-11-10T09:03:35;99973.09;;;9.59;90.66
52745;BME280;38637;49.984;20.426;2022-11-10T09:06:01;99975.56;;;9.60;90.97
52745;BME280;38637;49.984;20.426;2022-11-10T09:08:27;99984.44;;;9.68;90.62
52745;BME280;38637;49.984;20.426;2022-11-10T09:10:52;99994.28;;;9.69;91.39
52745;BME280;38637;49.984;20.426;2022-11-10T09:13:18;99991.91;;;9.72;91.60
52745;BME280;38637;49.984;20.426;2022-11-10T09:15:46;99994.81;;;9.82;91.27
52745;BME280;38637;49.984;20.426;2022-11-10T09:18:12;100002.03;;;9.88;91.30
52745;BME280;38637;49.984;20.426;2022-11-10T09:20:38;100000.25;;;9.94;91.31
52745;BME280;38637;49.984;20.426;2022-11-10T09:23:06;100001.66;;;9.97;91.40
52745;BME280;38637;49.984;20.426;2022-11-10T09:25:32;99991.91;;;10.01;91.27
52745;BME280;38637;49.984;20.426;2022-11-10T09:27:57;99997.75;;;10.04;91.77
52745;BME280;38637;49.984;20.426;2022-11-10T09:30:23;100002.56;;;10.14;91.30
52745;BME280;38637;49.984;20.426;2022-11-10T09:32:53;99997.06;;;10.26;90.65
52745;BME280;38637;49.984;20.426;2022-11-10T09:35:19;100002.16;;;10.34;90.36
52745;BME280;38637;49.984;20.426;2022-11-10T09:37:46;99984.41;;;10.20;90.22
52745;BME280;38637;49.984;20.426;2022-11-10T09:40:24;100010.09;;;10.35;90.45
52745;BME280;38637;49.984;20.426;2022-11-10T09:42:55;100010.78;;;10.43;90.44
52745;BME280;38637;49.984;20.426;2022-11-10T09:45:32;100010.44;;;10.39;90.36
52745;BME280;38637;49.984;20.426;2022-11-10T09:48:01;100017.50;;;10.52;90.49
52745;BME280;38637;49.984;20.426;2022-11-10T09:50:36;100015.69;;;10.57;90.32
52745;BME280;38637;49.984;20.426;2022-11-10T09:53:05;100016.44;;;10.53;90.09
52745;BME280;38637;49.984;20.426;2022-11-10T09:55:45;100021.75;;;10.60;90.07
52745;BME280;38637;49.984;20.426;2022-11-10T09:58:13;100025.53;;;10.58;90.30
52745;BME280;38637;49.984;20.426;2022-11-10T10:00:40;100024.81;;;10.63;89.80
52745;BME280;38637;49.984;20.426;2022-11-10T10:03:12;100028.38;;;10.64;89.98
52745;BME280;38637;49.984;20.426;2022-11-10T10:17:29;100033.28;;;10.78;90.20
52745;BME280;38637;49.984;20.426;2022-11-10T10:20:16;100045.63;;;10.81;89.88
52745;BME280;38637;49.984;20.426;2022-11-10T10:23:01;100039.56;;;10.79;90.20
52745;BME280;38637;49.984;20.426;2022-11-10T10:25:30;100056.38;;;10.88;90.23
52745;BME280;38637;49.984;20.426;2022-11-10T10:28:04;100054.16;;;10.85;90.30
52745;BME280;38637;49.984;20.426;2022-11-10T10:30:32;100050.59;;;11.01;89.89
52745;BME280;38637;49.984;20.426;2022-11-10T10:33:07;100060.34;;;11.14;89.61
52745;BME280;38637;49.984;20.426;2022-11-10T10:35:34;100053.50;;;11.28;89.40
52745;BME280;38637;49.984;20.426;2022-11-10T10:38:01;100042.63;;;11.33;89.22
52745;BME280;38637;49.984;20.426;2022-11-10T10:40:26;100047.59;;;11.36;89.38
52745;BME280;38637;49.984;20.426;2022-11-10T10:42:52;100053.50;;;11.45;89.23
52745;BME280;38637;49.984;20.426;2022-11-10T10:45:22;100056.53;;;11.48;89.21
52745;BME280;38637;49.984;20.426;2022-11-10T10:47:53;100056.03;;;11.52;89.05
52745;BME280;38637;49.984;20.426;2022-11-10T10:53:17;100051.41;;;11.52;89.00
52745;BME280;38637;49.984;20.426;2022-11-10T10:58:54;100072.13;;;11.48;88.97
52745;BME280;38637;49.984;20.426;2022-11-10T11:01:36;100048.84;;;11.28;89.30
52745;BME280;38637;49.984;20.426;2022-11-10T11:04:34;100073.78;;;11.32;89.48
52745;BME280;38637;49.984;20.426;2022-11-10T11:07:13;100084.06;;;11.25;89.71
52745;BME280;38637;49.984;20.426;2022-11-10T11:09:43;100072.53;;;11.23;89.87
52745;BME280;38637;49.984;20.426;2022-11-10T11:12:12;100078.09;;;11.28;89.42
52745;BME280;38637;49.984;20.426;2022-11-10T11:14:37;100065.25;;;11.28;89.45
52745;BME280;38637;49.984;20.426;2022-11-10T11:17:13;100065.00;;;11.30;89.69
52745;BME280;38637;49.984;20.426;2022-11-10T11:19:38;100077.59;;;11.31;89.78
52745;BME280;38637;49.984;20.426;2022-11-10T11:28:03;100085.66;;;11.21;90.52
52745;BME280;38637;49.984;20.426;2022-11-10T11:30:55;100083.22;;;11.24;90.87
52745;BME280;38637;49.984;20.426;2022-11-10T11:41:41;100093.34;;;11.24;91.35
52745;BME280;38637;49.984;20.426;2022-11-10T11:49:52;100097.22;;;11.28;91.41
52745;BME280;38637;49.984;20.426;2022-11-10T11:55:17;100095.66;;;11.32;91.10
52745;BME280;38637;49.984;20.426;2022-11-10T12:00:19;100099.13;;;11.44;90.80
52745;BME280;38637;49.984;20.426;2022-11-10T12:10:42;100110.34;;;11.43;90.59
52745;BME280;38637;49.984;20.426;2022-11-10T12:13:23;100103.44;;;11.40;90.52
52745;BME280;38637;49.984;20.426;2022-11-10T12:15:58;100097.66;;;11.37;90.69
52745;BME280;38637;49.984;20.426;2022-11-10T12:18:33;100102.78;;;11.33;90.84
52745;BME280;38637;49.984;20.426;2022-11-10T12:28:48;100109.00;;;11.12;92.10
52745;BME280;38637;49.984;20.426;2022-11-10T12:31:18;100109.22;;;11.10;91.93
52745;BME280;38637;49.984;20.426;2022-11-10T12:33:49;100121.00;;;11.11;92.16
52745;BME280;38637;49.984;20.426;2022-11-10T12:36:19;100126.94;;;11.08;92.39
52745;BME280;38637;49.984;20.426;2022-11-10T12:41:15;100113.22;;;11.02;92.49
52745;BME280;38637;49.984;20.426;2022-11-10T12:44:04;100130.28;;;11.10;92.71
52745;BME280;38637;49.984;20.426;2022-11-10T12:46:32;100120.66;;;11.07;92.62
52745;BME280;38637;49.984;20.426;2022-11-10T12:49:14;100120.91;;;11.06;92.93
52745;BME280;38637;49.984;20.426;2022-11-10T12:52:05;100136.06;;;11.13;92.89
52745;BME280;38637;49.984;20.426;2022-11-10T12:54:27;100139.13;;;11.17;92.93
52745;BME280;38637;49.984;20.426;2022-11-10T12:56:55;100146.28;;;11.18;92.76
52745;BME280;38637;49.984;20.426;2022-11-10T12:59:24;100143.22;;;11.14;93.22
52745;BME280;38637;49.984;20.426;2022-11-10T13:01:57;100149.72;;;11.13;92.78
52745;BME280;38637;49.984;20.426;2022-11-10T13:04:23;100159.63;;;11.14;93.01
52745;BME280;38637;49.984;20.426;2022-11-10T13:06:54;100140.28;;;11.04;93.09
52745;BME280;38637;49.984;20.426;2022-11-10T13:09:23;100159.63;;;11.14;93.33
52745;BME280;38637;49.984;20.426;2022-11-10T13:12:18;100163.50;;;11.18;93.23
52745;BME280;38637;49.984;20.426;2022-11-10T13:14:44;100152.47;;;11.13;93.37
52745;BME280;38637;49.984;20.426;2022-11-10T13:19:57;100168.81;;;11.25;92.97
52745;BME280;38637;49.984;20.426;2022-11-10T13:22:36;100158.97;;;11.24;92.78
52745;BME280;38637;49.984;20.426;2022-11-10T13:27:59;100177.13;;;11.30;92.53
52745;BME280;38637;49.984;20.426;2022-11-10T13:30:46;100175.59;;;11.22;92.47
52745;BME280;38637;49.984;20.426;2022-11-10T13:35:56;100185.00;;;11.26;92.12
52745;BME280;38637;49.984;20.426;2022-11-10T13:41:32;100169.34;;;11.10;92.20
52745;BME280;38637;49.984;20.426;2022-11-10T13:43:56;100182.78;;;11.12;92.58
52745;BME280;38637;49.984;20.426;2022-11-10T13:46:34;100176.63;;;11.04;92.34
52745;BME280;38637;49.984;20.426;2022-11-10T13:49:17;100200.13;;;11.17;92.77
52745;BME280;38637;49.984;20.426;2022-11-10T13:54:39;100210.56;;;11.20;92.40
52745;BME280;38637;49.984;20.426;2022-11-10T13:57:22;100214.34;;;11.19;92.49
52745;BME280;38637;49.984;20.426;2022-11-10T13:59:57;100217.34;;;11.18;92.45
52745;BME280;38637;49.984;20.426;2022-11-10T14:05:05;100195.09;;;10.97;92.68
52745;BME280;38637;49.984;20.426;2022-11-10T14:07:36;100195.84;;;10.93;92.75
52745;BME280;38637;49.984;20.426;2022-11-10T14:10:09;100222.22;;;11.16;92.80
52745;BME280;38637;49.984;20.426;2022-11-10T14:15:22;100238.63;;;11.16;92.12
52745;BME280;38637;49.984;20.426;2022-11-10T14:17:50;100230.69;;;11.14;92.30
52745;BME280;38637;49.984;20.426;2022-11-10T14:20:34;100224.28;;;11.09;91.81